Time;durP1;ratioP1;P1;durP2;ratioP2;P2;SDS_P1;SDS_P2;PMS_P1;PMS_P2;Temp;Humidity;BMP_temperature;BMP_pressure;BME280_temperature;BME280_humidity;BME280_pressure;Samples;Min_cycle;Max_cycle;Signal;HPM_P1;HPM_P2
2022/01/30 00:01:19;;;;;;;3.20;2.75;;;;;;;;;;5044434;28;20076;-70
2022/01/30 00:03:44;;;;;;;4.75;3.15;;;;;;;;;;5027665;28;20033;-73
2022/01/30 00:06:09;;;;;;;5.47;3.25;;;;;;;;;;5014700;28;20082;-72
2022/01/30 00:08:35;;;;;;;3.63;3.05;;;;;;;;;;5045921;28;20021;-73
2022/01/30 00:11:08;;;;;;;5.43;3.15;;;;;;;;;;5048577;28;20436;-72
2022/01/30 00:13:34;;;;;;;3.22;2.92;;;;;;;;;;5049532;28;20065;-72
2022/01/30 00:16:04;;;;;;;4.55;3.38;;;;;;;;;;5049036;28;20067;-72
2022/01/30 00:23:34;;;;;;;6.75;3.22;;;;;;;;;;5051518;28;20039;-68
2022/01/30 00:26:02;;;;;;;3.42;3.13;;;;;;;;;;5051183;28;20025;-68
2022/01/30 00:28:27;;;;;;;4.18;3.33;;;;;;;;;;5058253;28;20029;-68
2022/01/30 00:30:53;;;;;;;4.10;3.47;;;;;;;;;;5053234;28;20112;-67
2022/01/30 00:33:19;;;;;;;3.83;3.22;;;;;;;;;;5042744;28;20036;-67
2022/01/30 00:35:44;;;;;;;4.75;3.40;;;;;;;;;;5033375;28;20419;-68
2022/01/30 00:38:15;;;;;;;4.25;3.53;;;;;;;;;;5032893;28;20032;-68
2022/01/30 00:40:41;;;;;;;3.80;3.40;;;;;;;;;;5032920;28;20526;-68
2022/01/30 00:43:06;;;;;;;3.53;3.22;;;;;;;;;;5033169;28;20036;-68
2022/01/30 00:45:32;;;;;;;3.22;2.92;;;;;;;;;;5050840;28;20638;-68
2022/01/30 00:47:57;;;;;;;5.30;3.33;;;;;;;;;;5032864;28;20040;-68
2022/01/30 00:50:23;;;;;;;3.40;3.10;;;;;;;;;;5051644;28;20101;-68
2022/01/30 00:52:53;;;;;;;4.38;3.50;;;;;;;;;;5052778;28;20115;-68
2022/01/30 00:55:18;;;;;;;3.83;3.30;;;;;;;;;;5060172;28;20471;-69
2022/01/30 00:57:44;;;;;;;4.40;3.67;;;;;;;;;;5059376;28;20039;-67
2022/01/30 01:00:10;;;;;;;3.45;3.03;;;;;;;;;;5068498;28;20064;-68
2022/01/30 01:02:35;;;;;;;4.88;3.08;;;;;;;;;;5069198;28;20419;-68
2022/01/30 01:05:04;;;;;;;5.15;3.47;;;;;;;;;;5049096;28;20021;-68
2022/01/30 01:07:31;;;;;;;3.83;3.50;;;;;;;;;;5033464;28;20025;-68
2022/01/30 01:10:08;;;;;;;3.67;3.28;;;;;;;;;;5032581;28;20525;-68
2022/01/30 01:12:53;;;;;;;3.40;3.00;;;;;;;;;;5035047;28;20024;-68
2022/01/30 01:25:49;;;;;;;3.08;2.70;;;;;;;;;;5038653;28;20021;-68
2022/01/30 01:28:15;;;;;;;3.33;3.03;;;;;;;;;;5068116;28;20526;-68
2022/01/30 01:30:40;;;;;;;3.90;3.35;;;;;;;;;;5050518;28;20115;-68
2022/01/30 01:33:06;;;;;;;3.50;3.10;;;;;;;;;;5034224;28;20109;-68
2022/01/30 01:35:31;;;;;;;3.10;2.80;;;;;;;;;;5052847;28;20059;-68
2022/01/30 01:37:57;;;;;;;2.95;2.50;;;;;;;;;;5070332;28;20131;-69
2022/01/30 01:40:22;;;;;;;3.15;2.33;;;;;;;;;;5056831;28;20070;-68
2022/01/30 01:42:47;;;;;;;2.85;2.42;;;;;;;;;;5038201;28;20021;-68
2022/01/30 01:45:20;;;;;;;2.15;1.95;;;;;;;;;;5030494;28;20037;-69
2022/01/30 01:47:46;;;;;;;2.47;2.00;;;;;;;;;;5016857;28;20439;-69
2022/01/30 01:51:03;;;;;;;2.38;1.98;;;;;;;;;;5030170;28;20021;-69
2022/01/30 01:53:00;;;;;;;2.05;1.85;;;;;;;;;;5042231;28;20048;-69
2022/01/30 01:55:25;;;;;;;2.30;2.00;;;;;;;;;;5047521;28;20039;-68
2022/01/30 01:57:50;;;;;;;1.98;1.77;;;;;;;;;;5029868;28;20033;-68
2022/01/30 02:00:16;;;;;;;1.92;1.70;;;;;;;;;;5047049;28;20036;-68
2022/01/30 02:02:41;;;;;;;2.30;1.80;;;;;;;;;;5047514;28;20735;-69
2022/01/30 02:05:08;;;;;;;1.85;1.70;;;;;;;;;;5047570;28;20028;-68
2022/01/30 02:10:04;;;;;;;1.50;1.40;;;;;;;;;;5017331;28;20415;-69
2022/01/30 02:12:46;;;;;;;1.40;1.30;;;;;;;;;;5050640;28;20056;-68
2022/01/30 02:26:00;;;;;;;1.80;1.70;;;;;;;;;;5050479;28;20101;-68
2022/01/30 02:28:27;;;;;;;1.48;1.38;;;;;;;;;;5051619;28;20044;-68
2022/01/30 02:30:59;;;;;;;1.63;1.52;;;;;;;;;;5033437;28;20064;-68
2022/01/30 02:33:25;;;;;;;2.08;1.30;;;;;;;;;;5018266;28;20543;-68
2022/01/30 02:35:50;;;;;;;1.40;1.30;;;;;;;;;;5051779;28;20027;-68
2022/01/30 02:38:17;;;;;;;1.25;1.20;;;;;;;;;;5035971;28;20490;-67
2022/01/30 02:40:45;;;;;;;1.40;1.30;;;;;;;;;;5063573;28;20016;-68
2022/01/30 02:43:13;;;;;;;1.52;1.42;;;;;;;;;;5044072;28;20472;-67
2022/01/30 02:45:44;;;;;;;1.58;1.48;;;;;;;;;;5072569;28;20032;-67
2022/01/30 02:50:50;;;;;;;1.73;1.60;;;;;;;;;;5054405;28;20028;-67
2022/01/30 02:53:16;;;;;;;1.55;1.45;;;;;;;;;;5052510;28;20030;-67
2022/01/30 02:55:41;;;;;;;1.45;1.35;;;;;;;;;;5054252;28;20084;-67
2022/01/30 02:58:06;;;;;;;1.58;1.40;;;;;;;;;;5062045;28;20344;-68
2022/01/30 03:00:32;;;;;;;1.38;1.10;;;;;;;;;;5034085;28;20048;-67
2022/01/30 03:02:57;;;;;;;1.35;1.25;;;;;;;;;;5035041;28;20029;-68
2022/01/30 03:05:22;;;;;;;2.15;1.10;;;;;;;;;;5035189;28;20021;-68
2022/01/30 03:07:48;;;;;;;1.35;1.13;;;;;;;;;;5054167;28;20107;-68
2022/01/30 03:10:14;;;;;;;1.60;1.50;;;;;;;;;;5034912;28;20025;-68
2022/01/30 03:12:40;;;;;;;1.30;1.20;;;;;;;;;;5035046;28;20556;-68
2022/01/30 03:15:05;;;;;;;1.20;1.10;;;;;;;;;;5033829;28;20088;-68
2022/01/30 03:17:31;;;;;;;1.33;1.20;;;;;;;;;;5034813;28;20037;-67
2022/01/30 03:19:56;;;;;;;2.05;1.23;;;;;;;;;;5033448;28;20029;-68
2022/01/30 03:22:22;;;;;;;1.40;1.30;;;;;;;;;;5051385;28;20029;-68
2022/01/30 03:24:47;;;;;;;1.10;1.10;;;;;;;;;;5013981;28;20033;-68
2022/01/30 03:27:14;;;;;;;1.10;1.10;;;;;;;;;;5049030;28;20226;-68
2022/01/30 03:29:40;;;;;;;0.90;0.90;;;;;;;;;;5050183;28;20104;-68
2022/01/30 03:32:06;;;;;;;0.85;0.85;;;;;;;;;;5015646;28;20535;-68
2022/01/30 03:34:32;;;;;;;1.17;1.10;;;;;;;;;;5030505;28;20143;-68
2022/01/30 03:36:57;;;;;;;1.02;1.02;;;;;;;;;;5031002;28;20452;-68
2022/01/30 03:39:22;;;;;;;1.00;1.00;;;;;;;;;;5031181;28;20029;-68
2022/01/30 03:41:48;;;;;;;1.25;1.13;;;;;;;;;;5031564;28;20102;-68
2022/01/30 03:44:13;;;;;;;1.27;1.20;;;;;;;;;;5050408;28;20036;-68
2022/01/30 03:46:38;;;;;;;1.17;1.10;;;;;;;;;;5030566;28;20108;-68
2022/01/30 03:49:03;;;;;;;1.00;1.00;;;;;;;;;;5050209;28;21314;-68
2022/01/30 03:51:29;;;;;;;0.90;0.90;;;;;;;;;;5050088;28;20131;-68
2022/01/30 03:53:54;;;;;;;1.05;0.95;;;;;;;;;;5049890;28;20113;-68
2022/01/30 03:56:19;;;;;;;1.00;1.00;;;;;;;;;;5048229;28;20025;-68
2022/01/30 03:58:45;;;;;;;1.00;1.00;;;;;;;;;;5049282;28;20067;-68
2022/01/30 04:01:10;;;;;;;0.93;0.93;;;;;;;;;;5048517;28;20041;-68
2022/01/30 04:03:36;;;;;;;1.65;0.85;;;;;;;;;;5049809;28;20060;-68
2022/01/30 04:06:03;;;;;;;0.90;0.90;;;;;;;;;;5030099;28;20029;-68
2022/01/30 04:08:28;;;;;;;0.80;0.80;;;;;;;;;;5049621;28;20112;-68
2022/01/30 04:10:54;;;;;;;1.00;0.80;;;;;;;;;;5048862;28;20305;-69
2022/01/30 04:13:19;;;;;;;2.35;0.98;;;;;;;;;;5049858;28;20108;-67
2022/01/30 04:15:45;;;;;;;1.00;1.00;;;;;;;;;;5049805;28;20082;-69
2022/01/30 04:18:10;;;;;;;1.00;1.00;;;;;;;;;;5029766;28;20490;-69
2022/01/30 04:20:36;;;;;;;1.75;0.90;;;;;;;;;;5011813;28;20029;-69
2022/01/30 04:23:01;;;;;;;0.80;0.80;;;;;;;;;;5048724;28;20041;-69
2022/01/30 04:25:26;;;;;;;2.15;0.90;;;;;;;;;;5048239;28;20031;-69
2022/01/30 04:27:52;;;;;;;0.77;0.77;;;;;;;;;;5030603;28;20025;-69
2022/01/30 04:30:17;;;;;;;0.90;0.90;;;;;;;;;;5048618;28;20025;-69
2022/01/30 04:32:44;;;;;;;0.85;0.85;;;;;;;;;;5051481;28;20017;-68
2022/01/30 04:35:19;;;;;;;0.90;0.90;;;;;;;;;;5055996;28;20403;-68
2022/01/30 05:07:26;;;;;;;1.60;1.20;;;;;;;;;;5069852;28;20036;-68
2022/01/30 05:09:39;;;;;;;1.15;1.15;;;;;;;;;;5036677;28;20032;-68
2022/01/30 05:12:05;;;;;;;1.30;1.30;;;;;;;;;;5037475;28;20107;-68
2022/01/30 05:14:35;;;;;;;1.30;1.30;;;;;;;;;;5070747;28;20099;-68
2022/01/30 05:17:00;;;;;;;1.23;1.13;;;;;;;;;;5070196;28;20020;-68
2022/01/30 05:19:26;;;;;;;1.40;1.30;;;;;;;;;;5046973;28;20043;-67
2022/01/30 05:21:51;;;;;;;1.40;1.30;;;;;;;;;;5032831;28;20021;-68
2022/01/30 05:24:17;;;;;;;1.42;1.33;;;;;;;;;;5069955;28;20033;-68
2022/01/30 05:26:43;;;;;;;1.40;1.30;;;;;;;;;;5032032;28;20561;-67
2022/01/30 05:29:09;;;;;;;1.38;1.20;;;;;;;;;;5049556;28;20063;-68
2022/01/30 05:31:34;;;;;;;1.60;1.50;;;;;;;;;;5049264;28;20422;-68
2022/01/30 05:34:00;;;;;;;1.27;1.17;;;;;;;;;;5050216;28;20036;-68
2022/01/30 05:36:25;;;;;;;1.25;1.23;;;;;;;;;;5052826;28;20036;-68
2022/01/30 05:38:51;;;;;;;1.35;1.25;;;;;;;;;;5051867;28;20074;-68
2022/01/30 05:41:17;;;;;;;1.60;1.50;;;;;;;;;;5050967;28;20045;-68
2022/01/30 05:43:43;;;;;;;1.63;1.52;;;;;;;;;;5036934;28;20040;-67
2022/01/30 05:46:15;;;;;;;1.20;1.20;;;;;;;;;;5036962;28;20402;-69
2022/01/30 05:48:41;;;;;;;2.58;1.77;;;;;;;;;;5048718;28;20029;-68
2022/01/30 05:51:06;;;;;;;1.55;1.45;;;;;;;;;;5038921;28;20484;-68
2022/01/30 05:53:31;;;;;;;1.70;1.60;;;;;;;;;;5039981;28;20032;-67
2022/01/30 05:55:57;;;;;;;1.90;1.77;;;;;;;;;;5053982;28;20028;-68
2022/01/30 05:58:22;;;;;;;1.50;1.40;;;;;;;;;;5053243;28;20025;-68
2022/01/30 06:00:47;;;;;;;1.80;1.70;;;;;;;;;;5052366;28;20112;-68
2022/01/30 06:03:13;;;;;;;2.13;1.75;;;;;;;;;;5054083;28;20059;-68
2022/01/30 06:05:39;;;;;;;1.70;1.60;;;;;;;;;;5054026;28;20396;-68
2022/01/30 06:08:16;;;;;;;2.40;1.90;;;;;;;;;;5053532;28;20025;-68
2022/01/30 06:10:42;;;;;;;3.67;2.05;;;;;;;;;;5037563;28;20532;-68
2022/01/30 06:13:07;;;;;;;1.90;1.80;;;;;;;;;;5063028;28;20016;-68
2022/01/30 06:15:32;;;;;;;2.10;1.90;;;;;;;;;;5055873;28;20021;-69
2022/01/30 06:17:58;;;;;;;2.75;2.08;;;;;;;;;;5055695;28;20025;-68
2022/01/30 06:20:23;;;;;;;2.40;2.25;;;;;;;;;;5033301;28;20029;-70
2022/01/30 06:22:48;;;;;;;2.50;2.30;;;;;;;;;;5047272;28;20103;-70
2022/01/30 06:25:14;;;;;;;5.75;2.50;;;;;;;;;;5035328;28;20497;-71
2022/01/30 06:27:40;;;;;;;10.18;2.70;;;;;;;;;;5055009;28;20737;-71
2022/01/30 06:30:06;;;;;;;2.45;2.25;;;;;;;;;;5015878;28;20017;-71
2022/01/30 06:32:31;;;;;;;3.17;2.53;;;;;;;;;;5031006;28;20619;-71
2022/01/30 06:34:56;;;;;;;3.30;2.08;;;;;;;;;;5028741;28;20021;-71
2022/01/30 06:37:22;;;;;;;2.65;2.42;;;;;;;;;;5018339;28;20029;-71
2022/01/30 06:39:47;;;;;;;2.83;2.47;;;;;;;;;;5016269;28;20062;-71
2022/01/30 06:42:13;;;;;;;4.53;3.00;;;;;;;;;;5033541;28;20110;-71
2022/01/30 06:44:38;;;;;;;3.10;2.80;;;;;;;;;;5019962;28;20127;-71
2022/01/30 06:47:05;;;;;;;3.55;3.25;;;;;;;;;;5014155;28;20028;-71
2022/01/30 06:49:30;;;;;;;4.85;2.95;;;;;;;;;;5035202;28;20166;-71
2022/01/30 06:51:55;;;;;;;4.75;2.85;;;;;;;;;;5049512;28;20056;-71
2022/01/30 06:54:21;;;;;;;3.05;2.85;;;;;;;;;;5033429;28;20118;-70
2022/01/30 06:56:46;;;;;;;3.33;3.03;;;;;;;;;;5050288;28;20090;-71
2022/01/30 06:59:11;;;;;;;2.60;2.40;;;;;;;;;;5050833;28;20029;-71
2022/01/30 07:01:37;;;;;;;3.35;3.00;;;;;;;;;;5048565;28;20052;-70
2022/01/30 07:04:02;;;;;;;2.67;2.47;;;;;;;;;;5052043;28;20110;-70
2022/01/30 07:06:27;;;;;;;2.70;2.50;;;;;;;;;;5013267;28;20500;-70
2022/01/30 07:08:53;;;;;;;4.32;2.80;;;;;;;;;;5049658;28;20070;-70
2022/01/30 07:11:18;;;;;;;3.42;3.00;;;;;;;;;;5050793;28;20284;-70
2022/01/30 07:13:43;;;;;;;3.13;2.90;;;;;;;;;;5030130;28;20025;-70
2022/01/30 07:16:08;;;;;;;3.17;2.88;;;;;;;;;;5051652;28;20382;-70
2022/01/30 07:18:34;;;;;;;3.55;2.85;;;;;;;;;;5018910;28;20021;-70
2022/01/30 07:20:59;;;;;;;3.00;2.60;;;;;;;;;;5012155;28;20094;-70
2022/01/30 07:23:24;;;;;;;2.90;2.60;;;;;;;;;;5052291;28;20465;-70
2022/01/30 07:25:50;;;;;;;5.60;2.70;;;;;;;;;;5033660;28;20107;-70
2022/01/30 07:28:15;;;;;;;3.00;2.67;;;;;;;;;;5035787;28;21092;-70
2022/01/30 07:30:40;;;;;;;3.53;2.70;;;;;;;;;;5017357;28;20094;-70
2022/01/30 07:33:06;;;;;;;3.75;2.88;;;;;;;;;;5030939;28;20017;-70
2022/01/30 07:35:33;;;;;;;2.83;2.50;;;;;;;;;;5035036;28;20020;-70
2022/01/30 07:37:58;;;;;;;5.90;2.97;;;;;;;;;;5018431;28;20040;-70
2022/01/30 07:40:24;;;;;;;2.50;2.30;;;;;;;;;;5039233;28;20389;-70
2022/01/30 07:42:49;;;;;;;3.30;3.00;;;;;;;;;;5035558;28;20040;-71
2022/01/30 07:45:14;;;;;;;3.42;3.13;;;;;;;;;;5032244;28;20017;-70
2022/01/30 07:47:39;;;;;;;6.40;5.00;;;;;;;;;;5034174;28;20036;-70
2022/01/30 07:50:05;;;;;;;5.25;4.32;;;;;;;;;;5048881;28;20017;-70
2022/01/30 07:52:31;;;;;;;5.32;4.80;;;;;;;;;;5032524;28;20035;-70
2022/01/30 07:54:56;;;;;;;4.32;3.92;;;;;;;;;;5034867;28;20025;-70
2022/01/30 07:57:22;;;;;;;5.10;4.15;;;;;;;;;;5034591;28;20020;-70
2022/01/30 07:59:47;;;;;;;4.25;3.47;;;;;;;;;;5035730;28;20433;-69
2022/01/30 08:02:13;;;;;;;8.27;5.85;;;;;;;;;;5028444;28;20195;-70
2022/01/30 08:04:38;;;;;;;7.93;4.65;;;;;;;;;;5048187;28;20036;-70
2022/01/30 08:07:04;;;;;;;5.60;4.82;;;;;;;;;;5046579;28;20109;-70
2022/01/30 08:09:29;;;;;;;9.00;6.05;;;;;;;;;;5033446;28;20632;-70
2022/01/30 08:11:54;;;;;;;4.90;4.43;;;;;;;;;;5045517;28;20028;-70
2022/01/30 08:14:20;;;;;;;7.53;5.47;;;;;;;;;;5027141;28;20025;-70
2022/01/30 08:16:45;;;;;;;5.85;4.57;;;;;;;;;;5027684;28;20075;-70
2022/01/30 08:19:10;;;;;;;8.48;6.18;;;;;;;;;;5029055;28;20017;-71
2022/01/30 08:21:36;;;;;;;3.55;3.20;;;;;;;;;;5028432;28;20029;-69
2022/01/30 08:24:01;;;;;;;4.22;2.30;;;;;;;;;;5030550;28;20033;-70
2022/01/30 08:26:26;;;;;;;5.75;5.05;;;;;;;;;;5048039;28;20020;-70
2022/01/30 08:28:52;;;;;;;3.30;3.00;;;;;;;;;;5049504;28;20596;-70
2022/01/30 08:31:17;;;;;;;3.30;2.90;;;;;;;;;;5014305;28;20033;-70
2022/01/30 08:33:42;;;;;;;5.60;4.00;;;;;;;;;;5049095;28;20049;-70
2022/01/30 08:36:08;;;;;;;5.88;5.25;;;;;;;;;;5047330;28;20048;-70
2022/01/30 08:38:33;;;;;;;3.53;3.22;;;;;;;;;;5031735;28;20067;-70
2022/01/30 08:40:58;;;;;;;3.60;2.88;;;;;;;;;;5016217;28;20064;-69
2022/01/30 08:43:24;;;;;;;2.67;2.47;;;;;;;;;;5029950;28;20060;-70
2022/01/30 08:45:50;;;;;;;2.92;2.72;;;;;;;;;;5030344;28;20069;-70
2022/01/30 08:48:16;;;;;;;3.30;3.00;;;;;;;;;;5049823;28;20099;-69
2022/01/30 08:50:41;;;;;;;2.60;2.40;;;;;;;;;;5031181;28;20120;-70
2022/01/30 08:53:06;;;;;;;3.45;2.70;;;;;;;;;;5048009;28;20459;-69
2022/01/30 08:55:33;;;;;;;4.10;3.08;;;;;;;;;;5035509;28;20070;-70
2022/01/30 08:57:58;;;;;;;3.38;2.97;;;;;;;;;;5026884;28;20064;-69
2022/01/30 09:00:24;;;;;;;3.55;3.25;;;;;;;;;;5046607;28;20075;-70
2022/01/30 09:02:49;;;;;;;1.85;1.75;;;;;;;;;;5030603;28;20068;-69
2022/01/30 09:05:15;;;;;;;2.08;1.98;;;;;;;;;;5049490;28;20064;-69
2022/01/30 09:07:40;;;;;;;6.70;2.25;;;;;;;;;;5028415;28;20058;-69
2022/01/30 09:10:08;;;;;;;3.20;2.30;;;;;;;;;;5032949;28;20127;-69
2022/01/30 09:12:34;;;;;;;2.03;1.80;;;;;;;;;;5030132;28;20554;-70
2022/01/30 09:15:00;;;;;;;3.13;2.28;;;;;;;;;;5046781;28;20048;-69
2022/01/30 09:17:28;;;;;;;2.50;2.30;;;;;;;;;;5026641;28;20040;-70
2022/01/30 09:19:53;;;;;;;3.05;2.80;;;;;;;;;;5028687;28;20083;-69
2022/01/30 09:22:19;;;;;;;2.25;2.05;;;;;;;;;;5032229;28;20025;-70
2022/01/30 09:24:44;;;;;;;3.70;2.00;;;;;;;;;;5047542;28;20529;-69
2022/01/30 09:27:09;;;;;;;3.70;2.22;;;;;;;;;;5045051;28;20029;-69
2022/01/30 09:29:36;;;;;;;4.70;2.40;;;;;;;;;;5032419;28;20106;-70
2022/01/30 09:32:01;;;;;;;2.35;1.75;;;;;;;;;;5032679;28;20495;-69
2022/01/30 09:34:27;;;;;;;2.35;2.03;;;;;;;;;;5045370;28;20046;-69
2022/01/30 09:36:52;;;;;;;5.35;2.58;;;;;;;;;;5033244;28;20033;-69
2022/01/30 09:39:17;;;;;;;2.47;2.28;;;;;;;;;;5046712;28;20060;-69
2022/01/30 09:41:43;;;;;;;2.72;2.00;;;;;;;;;;5027341;28;20029;-69
2022/01/30 09:44:09;;;;;;;3.15;2.20;;;;;;;;;;5033943;28;20041;-69
2022/01/30 09:46:37;;;;;;;5.10;2.67;;;;;;;;;;5015154;28;20040;-69
2022/01/30 09:49:02;;;;;;;2.63;1.92;;;;;;;;;;5029839;28;20033;-69
2022/01/30 09:51:27;;;;;;;2.33;1.65;;;;;;;;;;5029464;28;20087;-69
2022/01/30 09:53:53;;;;;;;3.53;1.90;;;;;;;;;;5031819;28;20032;-69
2022/01/30 09:56:19;;;;;;;3.20;1.90;;;;;;;;;;5043191;28;20028;-69
2022/01/30 09:58:45;;;;;;;1.92;1.77;;;;;;;;;;5028744;28;20499;-69
2022/01/30 10:01:11;;;;;;;4.25;2.60;;;;;;;;;;5047261;28;20128;-69
2022/01/30 10:03:36;;;;;;;4.85;3.08;;;;;;;;;;5027217;28;20127;-69
2022/01/30 10:06:12;;;;;;;4.93;2.90;;;;;;;;;;5045601;28;20063;-69
2022/01/30 10:08:43;;;;;;;3.80;1.65;;;;;;;;;;5044279;28;20040;-69
2022/01/30 10:14:15;;;;;;;4.95;1.98;;;;;;;;;;5018249;28;20040;-69
2022/01/30 10:16:48;;;;;;;6.05;2.00;;;;;;;;;;5027845;28;20112;-69
2022/01/30 10:19:19;;;;;;;2.15;1.95;;;;;;;;;;5025374;28;20333;-69
2022/01/30 10:21:45;;;;;;;3.10;2.40;;;;;;;;;;5035950;28;20107;-69
2022/01/30 10:24:20;;;;;;;3.85;2.30;;;;;;;;;;5048934;28;20032;-69
2022/01/30 10:26:46;;;;;;;3.17;2.33;;;;;;;;;;5028260;28;20051;-72
2022/01/30 10:29:22;;;;;;;2.70;2.03;;;;;;;;;;5020153;28;20024;-73
2022/01/30 10:32:06;;;;;;;2.10;1.90;;;;;;;;;;5030418;28;20043;-72
2022/01/30 10:34:32;;;;;;;;;;;;;;;;;;5034235;28;20059;-70
2022/01/30 10:37:21;;;;;;;2.35;1.70;;;;;;;;;;5049868;28;19975;-71
2022/01/30 10:40:06;;;;;;;4.18;1.50;;;;;;;;;;5032772;28;20102;-71
2022/01/30 10:42:38;;;;;;;1.70;1.60;;;;;;;;;;5030914;28;20024;-72
2022/01/30 10:45:11;;;;;;;5.13;2.25;;;;;;;;;;5048977;28;20033;-72
2022/01/30 10:47:37;;;;;;;3.25;2.10;;;;;;;;;;5013966;28;20672;-71
2022/01/30 10:50:32;;;;;;;3.53;1.73;;;;;;;;;;5031988;28;20471;-72
2022/01/30 10:52:59;;;;;;;4.30;1.85;;;;;;;;;;5030859;28;20120;-71
2022/01/30 10:55:38;;;;;;;3.00;1.77;;;;;;;;;;5017534;28;20040;-71
2022/01/30 10:58:04;;;;;;;2.58;2.13;;;;;;;;;;5015922;28;20020;-71
2022/01/30 11:00:50;;;;;;;5.18;2.25;;;;;;;;;;5048976;28;20045;-71
2022/01/30 11:03:53;;;;;;;2.35;1.95;;;;;;;;;;5015871;28;20028;-71
2022/01/30 11:06:19;;;;;;;1.98;1.80;;;;;;;;;;5046982;28;20124;-71
2022/01/30 11:08:47;;;;;;;1.67;1.58;;;;;;;;;;5048086;28;20116;-71
2022/01/30 11:14:14;;;;;;;2.55;1.80;;;;;;;;;;5020584;28;20408;-70
2022/01/30 11:19:42;;;;;;;2.95;1.95;;;;;;;;;;4961632;28;20101;-70
2022/01/30 11:22:18;;;;;;;2.42;1.70;;;;;;;;;;5006145;28;20376;-70
2022/01/30 11:24:48;;;;;;;3.78;1.77;;;;;;;;;;5030864;28;20032;-71
2022/01/30 11:27:14;;;;;;;2.05;1.80;;;;;;;;;;5049819;28;20032;-71
2022/01/30 11:29:40;;;;;;;3.65;2.10;;;;;;;;;;5030724;28;20082;-71
2022/01/30 11:32:06;;;;;;;4.25;2.25;;;;;;;;;;5013080;28;20806;-71
2022/01/30 11:34:35;;;;;;;2.95;1.80;;;;;;;;;;5014756;28;20475;-71
2022/01/30 11:37:00;;;;;;;1.70;1.60;;;;;;;;;;5032191;28;20110;-71
2022/01/30 11:39:26;;;;;;;4.38;1.90;;;;;;;;;;5032510;28;20060;-71
2022/01/30 11:42:19;;;;;;;6.30;2.20;;;;;;;;;;5011400;28;20064;-71
2022/01/30 11:44:46;;;;;;;3.33;2.03;;;;;;;;;;5039835;28;20048;-72
2022/01/30 11:47:11;;;;;;;3.72;1.95;;;;;;;;;;5031855;28;20115;-71
2022/01/30 11:49:38;;;;;;;4.25;2.15;;;;;;;;;;5049886;28;20021;-71
2022/01/30 11:52:03;;;;;;;1.70;1.60;;;;;;;;;;5050981;28;20033;-71
2022/01/30 11:54:53;;;;;;;5.93;2.08;;;;;;;;;;5050111;28;20600;-71
2022/01/30 11:57:21;;;;;;;5.53;2.15;;;;;;;;;;5030772;28;20127;-70
2022/01/30 11:59:54;;;;;;;6.13;2.30;;;;;;;;;;5049963;28;20528;-71
2022/01/30 12:02:31;;;;;;;2.40;2.20;;;;;;;;;;5047618;28;20372;-70
2022/01/30 12:05:01;;;;;;;2.53;2.05;;;;;;;;;;5031360;28;20215;-71
2022/01/30 12:07:37;;;;;;;7.22;2.10;;;;;;;;;;5030820;28;20033;-72
2022/01/30 12:10:20;;;;;;;1.75;1.65;;;;;;;;;;5032805;28;20017;-71
2022/01/30 12:12:49;;;;;;;2.72;1.95;;;;;;;;;;5048784;28;20032;-71
2022/01/30 12:15:37;;;;;;;3.65;1.85;;;;;;;;;;5048287;28;20031;-71
2022/01/30 12:18:04;;;;;;;6.25;2.08;;;;;;;;;;5048939;28;20024;-70
2022/01/30 12:20:31;;;;;;;2.90;2.05;;;;;;;;;;5032918;28;20747;-71
2022/01/30 12:22:56;;;;;;;2.95;1.80;;;;;;;;;;5032286;28;20021;-71
2022/01/30 12:25:25;;;;;;;1.98;1.77;;;;;;;;;;5030291;28;20033;-71
2022/01/30 12:27:54;;;;;;;2.03;1.83;;;;;;;;;;5045043;28;20063;-71
2022/01/30 12:30:34;;;;;;;6.70;2.20;;;;;;;;;;5012857;28;20543;-70
2022/01/30 12:32:59;;;;;;;4.82;1.90;;;;;;;;;;5029755;28;20082;-70
2022/01/30 12:35:25;;;;;;;3.05;2.13;;;;;;;;;;5012251;28;20032;-70
2022/01/30 12:37:50;;;;;;;4.38;3.10;;;;;;;;;;5047082;28;20033;-71
2022/01/30 12:40:17;;;;;;;5.68;3.25;;;;;;;;;;5046715;28;20568;-71
2022/01/30 12:42:42;;;;;;;2.97;1.95;;;;;;;;;;5013523;28;20091;-71
2022/01/30 12:45:09;;;;;;;3.40;2.67;;;;;;;;;;5048880;28;20495;-71
2022/01/30 12:47:55;;;;;;;7.60;3.40;;;;;;;;;;5044732;28;20462;-70
2022/01/30 12:50:21;;;;;;;5.68;3.80;;;;;;;;;;5029943;28;20039;-70
2022/01/30 12:52:51;;;;;;;11.23;7.25;;;;;;;;;;5047284;28;20036;-70
2022/01/30 12:55:18;;;;;;;7.55;4.32;;;;;;;;;;5027599;28;20209;-70
2022/01/30 12:57:44;;;;;;;5.80;4.13;;;;;;;;;;5012723;28;20037;-71
2022/01/30 13:00:11;;;;;;;3.88;2.80;;;;;;;;;;5025865;28;20036;-70
2022/01/30 13:02:39;;;;;;;3.22;2.75;;;;;;;;;;5029016;28;20531;-71
2022/01/30 13:05:08;;;;;;;3.67;2.97;;;;;;;;;;5029035;28;20047;-70
2022/01/30 13:07:33;;;;;;;5.47;3.20;;;;;;;;;;5046300;28;20619;-70
2022/01/30 13:10:09;;;;;;;4.45;3.22;;;;;;;;;;5013208;28;20104;-70
2022/01/30 13:12:34;;;;;;;6.55;2.60;;;;;;;;;;5029301;28;20036;-70
2022/01/30 13:15:05;;;;;;;2.72;2.40;;;;;;;;;;5027816;28;20587;-71
2022/01/30 13:17:30;;;;;;;2.90;2.00;;;;;;;;;;5011861;28;20040;-70
2022/01/30 13:19:55;;;;;;;4.35;2.03;;;;;;;;;;5028849;28;20025;-70
2022/01/30 13:22:29;;;;;;;4.53;2.25;;;;;;;;;;5045276;28;20032;-70
2022/01/30 13:24:58;;;;;;;3.55;2.50;;;;;;;;;;5014592;28;20025;-70
2022/01/30 13:27:23;;;;;;;3.25;2.08;;;;;;;;;;5048261;28;20148;-70
2022/01/30 13:29:49;;;;;;;2.00;1.90;;;;;;;;;;5029665;28;20475;-71
2022/01/30 13:32:14;;;;;;;4.55;2.03;;;;;;;;;;5026401;28;20056;-71
2022/01/30 13:34:40;;;;;;;2.83;1.92;;;;;;;;;;5029067;28;20032;-71
2022/01/30 13:37:16;;;;;;;2.38;2.10;;;;;;;;;;5027872;28;20068;-71
2022/01/30 13:40:04;;;;;;;3.80;2.00;;;;;;;;;;5014011;28;20789;-70
2022/01/30 13:42:52;;;;;;;5.10;2.10;;;;;;;;;;5030697;28;20029;-71
2022/01/30 13:48:00;;;;;;;3.13;1.73;;;;;;;;;;5045916;28;20041;-71
2022/01/30 13:50:27;;;;;;;1.83;1.65;;;;;;;;;;5029526;28;20021;-70
2022/01/30 13:53:19;;;;;;;2.42;2.17;;;;;;;;;;5012127;28;20065;-71
2022/01/30 13:55:55;;;;;;;3.88;1.75;;;;;;;;;;5042087;28;20036;-71
2022/01/30 13:58:21;;;;;;;2.75;1.85;;;;;;;;;;5029432;28;20124;-70
2022/01/30 14:00:47;;;;;;;3.33;2.10;;;;;;;;;;5011795;28;20507;-71
2022/01/30 14:03:24;;;;;;;2.22;2.00;;;;;;;;;;5026562;28;20059;-71
2022/01/30 14:05:49;;;;;;;3.78;2.30;;;;;;;;;;5048872;28;20443;-70
2022/01/30 14:08:15;;;;;;;3.03;2.53;;;;;;;;;;5047423;28;20075;-71
2022/01/30 14:10:42;;;;;;;6.63;4.35;;;;;;;;;;5030314;28;20482;-71
2022/01/30 14:13:11;;;;;;;3.97;3.05;;;;;;;;;;5048443;28;20513;-71
2022/01/30 14:15:37;;;;;;;3.45;2.42;;;;;;;;;;5016749;28;20799;-70
2022/01/30 14:18:06;;;;;;;2.75;2.10;;;;;;;;;;5049155;28;20108;-71
2022/01/30 14:20:32;;;;;;;4.95;3.85;;;;;;;;;;5032837;28;20039;-71
2022/01/30 14:23:05;;;;;;;3.95;3.28;;;;;;;;;;5050059;28;20116;-70
2022/01/30 14:25:31;;;;;;;4.85;3.50;;;;;;;;;;4998929;28;20024;-71
2022/01/30 14:27:56;;;;;;;4.28;2.85;;;;;;;;;;5047524;28;20035;-71
2022/01/30 14:30:22;;;;;;;7.35;2.90;;;;;;;;;;5048541;28;22310;-71
2022/01/30 14:32:48;;;;;;;6.25;4.20;;;;;;;;;;5007189;28;20518;-71
2022/01/30 14:35:14;;;;;;;4.97;3.60;;;;;;;;;;5047366;28;20025;-71
2022/01/30 14:37:44;;;;;;;5.85;3.50;;;;;;;;;;5049105;28;20033;-71
2022/01/30 14:40:10;;;;;;;9.63;5.60;;;;;;;;;;5000206;28;20558;-70
2022/01/30 14:42:35;;;;;;;6.03;4.65;;;;;;;;;;5047779;28;20290;-71
2022/01/30 14:45:00;;;;;;;4.18;3.78;;;;;;;;;;5049331;28;20039;-71
2022/01/30 14:47:26;;;;;;;6.35;4.25;;;;;;;;;;5048459;28;20033;-70
2022/01/30 14:49:51;;;;;;;7.10;2.30;;;;;;;;;;5029829;28;20021;-71
2022/01/30 14:52:16;;;;;;;7.20;4.85;;;;;;;;;;5049150;28;20021;-71
2022/01/30 14:54:42;;;;;;;7.80;4.90;;;;;;;;;;5030522;28;20078;-70
2022/01/30 14:57:08;;;;;;;7.63;4.15;;;;;;;;;;5030208;28;20033;-70
2022/01/30 14:59:33;;;;;;;5.38;3.08;;;;;;;;;;5031580;28;20033;-71
2022/01/30 15:01:59;;;;;;;5.35;3.28;;;;;;;;;;5049634;28;20122;-71
2022/01/30 15:04:24;;;;;;;9.65;3.65;;;;;;;;;;5014820;28;20040;-70
2022/01/30 15:06:49;;;;;;;10.77;3.80;;;;;;;;;;5030695;28;20071;-71
2022/01/30 15:09:15;;;;;;;10.90;4.35;;;;;;;;;;5043997;28;20081;-71
2022/01/30 15:11:40;;;;;;;6.60;3.20;;;;;;;;;;5044042;28;20024;-71
2022/01/30 15:14:06;;;;;;;3.38;2.45;;;;;;;;;;5028958;28;20428;-71
2022/01/30 15:16:43;;;;;;;7.05;4.05;;;;;;;;;;5046876;28;20048;-71
2022/01/30 15:19:10;;;;;;;7.38;3.60;;;;;;;;;;5014357;28;20033;-70
2022/01/30 15:21:36;;;;;;;8.70;3.67;;;;;;;;;;5029953;28;20028;-71
2022/01/30 15:24:01;;;;;;;8.52;2.90;;;;;;;;;;5029112;28;20033;-71
2022/01/30 15:26:27;;;;;;;10.10;3.13;;;;;;;;;;5029835;28;20025;-70
2022/01/30 15:28:52;;;;;;;8.25;3.40;;;;;;;;;;5029095;28;20395;-71
2022/01/30 15:31:18;;;;;;;5.78;2.60;;;;;;;;;;4996175;28;20056;-70
2022/01/30 15:33:43;;;;;;;4.50;1.85;;;;;;;;;;5025856;28;20028;-70
2022/01/30 15:36:09;;;;;;;8.93;2.70;;;;;;;;;;5048378;28;20029;-72
2022/01/30 15:38:34;;;;;;;5.03;2.38;;;;;;;;;;5028609;28;20028;-70
2022/01/30 15:41:00;;;;;;;8.95;3.33;;;;;;;;;;5043241;28;20063;-70
2022/01/30 15:43:26;;;;;;;5.65;2.50;;;;;;;;;;5028315;28;20487;-70
2022/01/30 15:51:19;;;;;;;6.45;2.28;;;;;;;;;;5047495;28;20457;-70
2022/01/30 15:53:45;;;;;;;10.32;2.65;;;;;;;;;;5029553;28;20036;-70
2022/01/30 15:56:10;;;;;;;8.40;3.78;;;;;;;;;;5046566;28;20085;-70
2022/01/30 15:58:35;;;;;;;8.85;3.88;;;;;;;;;;5046738;28;20104;-70
2022/01/30 16:01:01;;;;;;;11.60;4.00;;;;;;;;;;5028950;28;20037;-70
2022/01/30 16:03:26;;;;;;;12.32;3.50;;;;;;;;;;5031387;28;20070;-69